sensor_id;sensor_type;location;lat;lon;timestamp;temperature;humidity
610;DHT22;292;48.800;9.216;2023-07-29T00:00:52;20.70;88.40
610;DHT22;292;48.800;9.216;2023-07-29T00:03:19;20.70;88.10
610;DHT22;292;48.800;9.216;2023-07-29T00:05:48;20.70;88.30
610;DHT22;292;48.800;9.216;2023-07-29T00:08:16;20.70;88.30
610;DHT22;292;48.800;9.216;2023-07-29T00:10:43;20.60;88.40
610;DHT22;292;48.800;9.216;2023-07-29T00:13:11;20.60;88.40
610;DHT22;292;48.800;9.216;2023-07-29T00:15:39;20.60;88.40
610;DHT22;292;48.800;9.216;2023-07-29T00:18:06;20.60;88.30
610;DHT22;292;48.800;9.216;2023-07-29T00:20:33;20.60;88.30
610;DHT22;292;48.800;9.216;2023-07-29T00:23:02;20.50;88.30
610;DHT22;292;48.800;9.216;2023-07-29T00:25:29;20.50;88.30
610;DHT22;292;48.800;9.216;2023-07-29T00:27:57;20.50;88.30
610;DHT22;292;48.800;9.216;2023-07-29T00:30:25;20.50;88.40
610;DHT22;292;48.800;9.216;2023-07-29T00:32:52;20.40;88.40
610;DHT22;292;48.800;9.216;2023-07-29T00:35:19;20.40;88.40
610;DHT22;292;48.800;9.216;2023-07-29T00:37:47;20.40;88.40
610;DHT22;292;48.800;9.216;2023-07-29T00:40:20;20.40;88.60
610;DHT22;292;48.800;9.216;2023-07-29T00:42:47;20.40;88.40
610;DHT22;292;48.800;9.216;2023-07-29T00:45:15;20.40;88.40
610;DHT22;292;48.800;9.216;2023-07-29T00:47:42;20.40;88.40
610;DHT22;292;48.800;9.216;2023-07-29T00:50:11;20.40;88.60
610;DHT22;292;48.800;9.216;2023-07-29T00:52:38;20.40;88.70
610;DHT22;292;48.800;9.216;2023-07-29T00:55:07;20.40;88.70
610;DHT22;292;48.800;9.216;2023-07-29T00:57:35;20.40;88.70
610;DHT22;292;48.800;9.216;2023-07-29T01:00:05;20.30;88.80
610;DHT22;292;48.800;9.216;2023-07-29T01:02:32;20.30;88.70
610;DHT22;292;48.800;9.216;2023-07-29T01:05:00;20.40;88.60
610;DHT22;292;48.800;9.216;2023-07-29T01:07:31;20.30;88.60
610;DHT22;292;48.800;9.216;2023-07-29T01:10:02;20.30;88.60
610;DHT22;292;48.800;9.216;2023-07-29T01:12:37;20.30;88.40
610;DHT22;292;48.800;9.216;2023-07-29T01:15:14;20.30;88.60
610;DHT22;292;48.800;9.216;2023-07-29T01:17:47;20.30;88.30
610;DHT22;292;48.800;9.216;2023-07-29T01:20:15;20.30;88.30
610;DHT22;292;48.800;9.216;2023-07-29T01:22:43;20.30;88.10
610;DHT22;292;48.800;9.216;2023-07-29T01:25:12;20.30;88.10
610;DHT22;292;48.800;9.216;2023-07-29T01:27:41;20.30;88.10
610;DHT22;292;48.800;9.216;2023-07-29T01:30:09;20.30;88.30
610;DHT22;292;48.800;9.216;2023-07-29T01:32:41;20.30;88.10
610;DHT22;292;48.800;9.216;2023-07-29T01:35:17;20.30;88.10
610;DHT22;292;48.800;9.216;2023-07-29T01:38:03;20.30;88.00
610;DHT22;292;48.800;9.216;2023-07-29T01:40:33;20.30;88.00
610;DHT22;292;48.800;9.216;2023-07-29T01:43:00;20.30;88.00
610;DHT22;292;48.800;9.216;2023-07-29T01:45:29;20.30;88.00
610;DHT22;292;48.800;9.216;2023-07-29T01:48:01;20.30;87.80
610;DHT22;292;48.800;9.216;2023-07-29T01:50:28;20.30;87.80
610;DHT22;292;48.800;9.216;2023-07-29T01:52:56;20.30;87.80
610;DHT22;292;48.800;9.216;2023-07-29T01:55:23;20.30;87.70
610;DHT22;292;48.800;9.216;2023-07-29T01:57:52;20.30;87.80
610;DHT22;292;48.800;9.216;2023-07-29T02:00:19;20.30;87.80
610;DHT22;292;48.800;9.216;2023-07-29T02:02:49;20.30;87.80
610;DHT22;292;48.800;9.216;2023-07-29T02:05:16;20.30;87.70
610;DHT22;292;48.800;9.216;2023-07-29T02:07:43;20.30;87.70
610;DHT22;292;48.800;9.216;2023-07-29T02:10:10;20.30;87.50
610;DHT22;292;48.800;9.216;2023-07-29T02:12:37;20.30;87.40
610;DHT22;292;48.800;9.216;2023-07-29T02:15:07;20.30;87.40
610;DHT22;292;48.800;9.216;2023-07-29T02:17:35;20.30;87.50
610;DHT22;292;48.800;9.216;2023-07-29T02:20:02;20.30;87.50
610;DHT22;292;48.800;9.216;2023-07-29T02:22:31;20.30;87.50
610;DHT22;292;48.800;9.216;2023-07-29T02:25:01;20.30;87.40
610;DHT22;292;48.800;9.216;2023-07-29T02:27:29;20.30;87.40
610;DHT22;292;48.800;9.216;2023-07-29T02:29:55;20.20;87.40
610;DHT22;292;48.800;9.216;2023-07-29T02:32:25;20.20;87.40
610;DHT22;292;48.800;9.216;2023-07-29T02:34:52;20.20;87.40
610;DHT22;292;48.800;9.216;2023-07-29T02:37:19;20.20;87.40
610;DHT22;292;48.800;9.216;2023-07-29T02:39:48;20.20;87.50
610;DHT22;292;48.800;9.216;2023-07-29T02:42:16;20.20;87.80
610;DHT22;292;48.800;9.216;2023-07-29T02:44:43;20.20;87.70
610;DHT22;292;48.800;9.216;2023-07-29T02:47:10;20.20;87.80
610;DHT22;292;48.800;9.216;2023-07-29T02:49:38;20.20;87.70
610;DHT22;292;48.800;9.216;2023-07-29T02:52:06;20.20;87.50
610;DHT22;292;48.800;9.216;2023-07-29T02:54:33;20.20;87.70
610;DHT22;292;48.800;9.216;2023-07-29T02:57:00;20.10;87.70
610;DHT22;292;48.800;9.216;2023-07-29T02:59:27;20.10;87.70
610;DHT22;292;48.800;9.216;2023-07-29T03:01:54;20.10;87.80
610;DHT22;292;48.800;9.216;2023-07-29T03:04:21;20.10;88.00
610;DHT22;292;48.800;9.216;2023-07-29T03:06:56;20.10;88.00
610;DHT22;292;48.800;9.216;2023-07-29T03:09:26;20.10;87.80
610;DHT22;292;48.800;9.216;2023-07-29T03:11:56;20.10;87.70
610;DHT22;292;48.800;9.216;2023-07-29T03:14:24;20.20;87.50
610;DHT22;292;48.800;9.216;2023-07-29T03:16:52;20.20;87.40
610;DHT22;292;48.800;9.216;2023-07-29T03:19:20;20.20;87.40
610;DHT22;292;48.800;9.216;2023-07-29T03:21:47;20.20;87.40
610;DHT22;292;48.800;9.216;2023-07-29T03:24:16;20.20;87.40
610;DHT22;292;48.800;9.216;2023-07-29T03:26:43;20.20;87.30
610;DHT22;292;48.800;9.216;2023-07-29T03:29:11;20.20;87.30
610;DHT22;292;48.800;9.216;2023-07-29T03:31:40;20.20;87.30
610;DHT22;292;48.800;9.216;2023-07-29T03:34:07;20.20;87.30
610;DHT22;292;48.800;9.216;2023-07-29T03:36:36;20.20;87.40
610;DHT22;292;48.800;9.216;2023-07-29T03:39:05;20.20;87.40
610;DHT22;292;48.800;9.216;2023-07-29T03:41:34;20.20;87.50
610;DHT22;292;48.800;9.216;2023-07-29T03:44:02;20.10;87.70
610;DHT22;292;48.800;9.216;2023-07-29T03:46:29;20.20;87.70
610;DHT22;292;48.800;9.216;2023-07-29T03:48:56;20.10;87.70
610;DHT22;292;48.800;9.216;2023-07-29T03:51:23;20.10;87.50
610;DHT22;292;48.800;9.216;2023-07-29T03:53:52;20.10;87.70
610;DHT22;292;48.800;9.216;2023-07-29T03:56:19;20.20;87.70
610;DHT22;292;48.800;9.216;2023-07-29T03:58:47;20.20;87.70
610;DHT22;292;48.800;9.216;2023-07-29T04:01:15;20.20;87.70
610;DHT22;292;48.800;9.216;2023-07-29T04:03:44;20.20;87.70
610;DHT22;292;48.800;9.216;2023-07-29T04:06:11;20.20;87.70
610;DHT22;292;48.800;9.216;2023-07-29T04:08:38;20.30;87.50
610;DHT22;292;48.800;9.216;2023-07-29T04:11:06;20.30;87.40
610;DHT22;292;48.800;9.216;2023-07-29T04:13:35;20.30;87.40
610;DHT22;292;48.800;9.216;2023-07-29T04:16:05;20.30;87.40
610;DHT22;292;48.800;9.216;2023-07-29T04:18:32;20.30;87.40
610;DHT22;292;48.800;9.216;2023-07-29T04:21:00;20.20;87.40
610;DHT22;292;48.800;9.216;2023-07-29T04:23:27;20.20;87.50
610;DHT22;292;48.800;9.216;2023-07-29T04:25:55;20.10;88.00
610;DHT22;292;48.800;9.216;2023-07-29T04:28:22;20.20;88.00
610;DHT22;292;48.800;9.216;2023-07-29T04:30:49;20.20;88.30
610;DHT22;292;48.800;9.216;2023-07-29T04:33:18;20.20;88.30
610;DHT22;292;48.800;9.216;2023-07-29T04:35:45;20.20;88.40
610;DHT22;292;48.800;9.216;2023-07-29T04:38:12;20.10;88.60
610;DHT22;292;48.800;9.216;2023-07-29T04:40:40;20.10;88.60
610;DHT22;292;48.800;9.216;2023-07-29T04:43:07;20.10;88.70
610;DHT22;292;48.800;9.216;2023-07-29T04:45:34;20.10;89.00
610;DHT22;292;48.800;9.216;2023-07-29T04:48:02;20.10;89.00
610;DHT22;292;48.800;9.216;2023-07-29T04:50:31;20.00;89.30
610;DHT22;292;48.800;9.216;2023-07-29T04:52:58;20.00;89.60
610;DHT22;292;48.800;9.216;2023-07-29T04:55:25;20.00;89.70
610;DHT22;292;48.800;9.216;2023-07-29T04:57:52;20.00;89.90
610;DHT22;292;48.800;9.216;2023-07-29T05:00:19;20.00;90.10
610;DHT22;292;48.800;9.216;2023-07-29T05:02:46;20.00;90.20
610;DHT22;292;48.800;9.216;2023-07-29T05:05:13;20.10;90.30
610;DHT22;292;48.800;9.216;2023-07-29T05:07:42;20.10;90.40
610;DHT22;292;48.800;9.216;2023-07-29T05:10:09;20.10;90.40
610;DHT22;292;48.800;9.216;2023-07-29T05:12:37;20.10;90.30
610;DHT22;292;48.800;9.216;2023-07-29T05:15:05;20.10;90.40
610;DHT22;292;48.800;9.216;2023-07-29T05:17:32;20.10;90.40
610;DHT22;292;48.800;9.216;2023-07-29T05:20:00;20.10;90.40
610;DHT22;292;48.800;9.216;2023-07-29T05:22:27;20.10;90.60
610;DHT22;292;48.800;9.216;2023-07-29T05:24:55;20.10;90.60
610;DHT22;292;48.800;9.216;2023-07-29T05:27:23;20.20;90.70
610;DHT22;292;48.800;9.216;2023-07-29T05:29:50;20.20;90.60
610;DHT22;292;48.800;9.216;2023-07-29T05:32:17;20.20;90.40
610;DHT22;292;48.800;9.216;2023-07-29T05:34:44;20.20;90.60
610;DHT22;292;48.800;9.216;2023-07-29T05:37:11;20.20;90.60
610;DHT22;292;48.800;9.216;2023-07-29T05:39:38;20.20;90.40
610;DHT22;292;48.800;9.216;2023-07-29T05:42:08;20.20;90.40
610;DHT22;292;48.800;9.216;2023-07-29T05:44:35;20.20;90.50
610;DHT22;292;48.800;9.216;2023-07-29T05:47:02;20.10;90.50
610;DHT22;292;48.800;9.216;2023-07-29T05:49:29;20.10;90.60
610;DHT22;292;48.800;9.216;2023-07-29T05:51:56;20.10;90.60
610;DHT22;292;48.800;9.216;2023-07-29T05:54:24;20.10;90.60
610;DHT22;292;48.800;9.216;2023-07-29T05:56:52;20.20;90.60
610;DHT22;292;48.800;9.216;2023-07-29T05:59:21;20.20;90.60
610;DHT22;292;48.800;9.216;2023-07-29T06:01:48;20.30;90.40
610;DHT22;292;48.800;9.216;2023-07-29T06:04:16;20.30;90.40
610;DHT22;292;48.800;9.216;2023-07-29T06:06:44;20.30;90.40
610;DHT22;292;48.800;9.216;2023-07-29T06:09:12;20.40;90.40
610;DHT22;292;48.800;9.216;2023-07-29T06:11:39;20.40;90.10
610;DHT22;292;48.800;9.216;2023-07-29T06:14:06;20.40;90.20
610;DHT22;292;48.800;9.216;2023-07-29T06:16:35;20.50;90.10
610;DHT22;292;48.800;9.216;2023-07-29T06:19:02;20.50;90.10
610;DHT22;292;48.800;9.216;2023-07-29T06:21:30;20.60;90.20
610;DHT22;292;48.800;9.216;2023-07-29T06:23:57;20.60;90.10
610;DHT22;292;48.800;9.216;2023-07-29T06:26:24;20.70;90.10
610;DHT22;292;48.800;9.216;2023-07-29T06:28:51;20.70;90.10
610;DHT22;292;48.800;9.216;2023-07-29T06:31:20;20.70;90.00
610;DHT22;292;48.800;9.216;2023-07-29T06:33:49;20.80;89.90
610;DHT22;292;48.800;9.216;2023-07-29T06:36:16;20.80;89.70
610;DHT22;292;48.800;9.216;2023-07-29T06:38:43;20.80;89.60
610;DHT22;292;48.800;9.216;2023-07-29T06:41:12;20.80;89.60
610;DHT22;292;48.800;9.216;2023-07-29T06:43:39;20.80;89.40
610;DHT22;292;48.800;9.216;2023-07-29T06:46:12;20.90;89.40
610;DHT22;292;48.800;9.216;2023-07-29T06:48:39;20.90;89.30
610;DHT22;292;48.800;9.216;2023-07-29T06:51:12;20.90;89.30
610;DHT22;292;48.800;9.216;2023-07-29T06:53:39;20.80;89.30
610;DHT22;292;48.800;9.216;2023-07-29T06:56:07;20.90;89.40
610;DHT22;292;48.800;9.216;2023-07-29T06:58:34;20.90;89.40
610;DHT22;292;48.800;9.216;2023-07-29T07:01:01;20.90;89.40
610;DHT22;292;48.800;9.216;2023-07-29T07:03:29;20.90;89.60
610;DHT22;292;48.800;9.216;2023-07-29T07:05:58;20.90;89.30
610;DHT22;292;48.800;9.216;2023-07-29T07:08:26;20.90;89.40
610;DHT22;292;48.800;9.216;2023-07-29T07:10:53;20.90;89.40
610;DHT22;292;48.800;9.216;2023-07-29T07:13:21;21.00;89.40
610;DHT22;292;48.800;9.216;2023-07-29T07:15:49;21.00;89.40
610;DHT22;292;48.800;9.216;2023-07-29T07:18:17;21.00;89.40
610;DHT22;292;48.800;9.216;2023-07-29T07:20:48;21.00;89.60
610;DHT22;292;48.800;9.216;2023-07-29T07:23:17;21.00;89.70
610;DHT22;292;48.800;9.216;2023-07-29T07:25:49;21.10;89.70
610;DHT22;292;48.800;9.216;2023-07-29T07:28:16;21.10;89.70
610;DHT22;292;48.800;9.216;2023-07-29T07:30:43;21.10;89.60
610;DHT22;292;48.800;9.216;2023-07-29T07:33:10;21.20;89.40
610;DHT22;292;48.800;9.216;2023-07-29T07:35:46;21.20;89.30
610;DHT22;292;48.800;9.216;2023-07-29T07:38:15;21.20;89.40
610;DHT22;292;48.800;9.216;2023-07-29T07:40:43;21.20;89.30
610;DHT22;292;48.800;9.216;2023-07-29T07:43:22;21.30;89.30
610;DHT22;292;48.800;9.216;2023-07-29T07:45:49;21.20;89.00
610;DHT22;292;48.800;9.216;2023-07-29T07:48:17;21.30;88.80
610;DHT22;292;48.800;9.216;2023-07-29T07:50:47;21.30;88.80
610;DHT22;292;48.800;9.216;2023-07-29T07:53:14;21.30;88.80
610;DHT22;292;48.800;9.216;2023-07-29T07:55:41;21.30;88.70
610;DHT22;292;48.800;9.216;2023-07-29T07:58:08;21.40;88.70
610;DHT22;292;48.800;9.216;2023-07-29T08:00:36;21.40;88.60
610;DHT22;292;48.800;9.216;2023-07-29T08:03:04;21.40;88.60
610;DHT22;292;48.800;9.216;2023-07-29T08:05:32;21.40;88.10
610;DHT22;292;48.800;9.216;2023-07-29T08:07:59;21.50;87.80
610;DHT22;292;48.800;9.216;2023-07-29T08:10:28;21.50;87.70
610;DHT22;292;48.800;9.216;2023-07-29T08:12:55;21.50;87.10
610;DHT22;292;48.800;9.216;2023-07-29T08:15:22;21.60;87.10
610;DHT22;292;48.800;9.216;2023-07-29T08:17:52;21.60;87.00
610;DHT22;292;48.800;9.216;2023-07-29T08:20:25;21.60;87.10
610;DHT22;292;48.800;9.216;2023-07-29T08:22:56;21.70;87.10
610;DHT22;292;48.800;9.216;2023-07-29T08:25:37;21.70;87.10
610;DHT22;292;48.800;9.216;2023-07-29T08:28:11;21.80;87.40
610;DHT22;292;48.800;9.216;2023-07-29T08:31:11;21.90;87.10
610;DHT22;292;48.800;9.216;2023-07-29T08:34:03;21.90;87.00
610;DHT22;292;48.800;9.216;2023-07-29T08:36:30;22.00;86.70
610;DHT22;292;48.800;9.216;2023-07-29T08:38:57;22.00;86.50
610;DHT22;292;48.800;9.216;2023-07-29T08:41:26;22.10;86.10
610;DHT22;292;48.800;9.216;2023-07-29T08:44:04;22.20;85.40
610;DHT22;292;48.800;9.216;2023-07-29T08:46:43;22.20;85.10
610;DHT22;292;48.800;9.216;2023-07-29T08:49:13;22.30;84.50
610;DHT22;292;48.800;9.216;2023-07-29T08:51:42;22.30;84.20
610;DHT22;292;48.800;9.216;2023-07-29T08:54:14;22.40;83.90
610;DHT22;292;48.800;9.216;2023-07-29T08:56:44;22.50;83.60
610;DHT22;292;48.800;9.216;2023-07-29T08:59:13;22.50;83.60
610;DHT22;292;48.800;9.216;2023-07-29T09:01:42;22.60;83.60
610;DHT22;292;48.800;9.216;2023-07-29T09:04:09;22.60;83.60
610;DHT22;292;48.800;9.216;2023-07-29T09:06:39;22.70;83.50
610;DHT22;292;48.800;9.216;2023-07-29T09:09:07;22.80;82.50
610;DHT22;292;48.800;9.216;2023-07-29T09:11:36;22.90;82.20
610;DHT22;292;48.800;9.216;2023-07-29T09:14:03;23.00;82.20
610;DHT22;292;48.800;9.216;2023-07-29T09:16:30;23.10;81.60
610;DHT22;292;48.800;9.216;2023-07-29T09:19:01;23.10;81.20
610;DHT22;292;48.800;9.216;2023-07-29T09:21:29;23.20;81.20
610;DHT22;292;48.800;9.216;2023-07-29T09:24:02;23.30;80.60
610;DHT22;292;48.800;9.216;2023-07-29T09:26:29;23.30;80.40
610;DHT22;292;48.800;9.216;2023-07-29T09:28:58;23.40;80.10
610;DHT22;292;48.800;9.216;2023-07-29T09:31:26;23.40;80.00
610;DHT22;292;48.800;9.216;2023-07-29T09:33:56;23.50;79.90
610;DHT22;292;48.800;9.216;2023-07-29T09:36:25;23.60;79.90
610;DHT22;292;48.800;9.216;2023-07-29T09:38:56;23.70;79.90
610;DHT22;292;48.800;9.216;2023-07-29T09:41:25;23.70;79.60
610;DHT22;292;48.800;9.216;2023-07-29T09:43:56;23.90;79.10
610;DHT22;292;48.800;9.216;2023-07-29T09:46:25;23.90;78.80
610;DHT22;292;48.800;9.216;2023-07-29T09:49:05;24.00;78.40
610;DHT22;292;48.800;9.216;2023-07-29T09:51:39;24.10;77.70
610;DHT22;292;48.800;9.216;2023-07-29T09:54:10;24.20;77.10
610;DHT22;292;48.800;9.216;2023-07-29T09:56:41;24.30;76.50
610;DHT22;292;48.800;9.216;2023-07-29T09:59:25;24.30;76.10
610;DHT22;292;48.800;9.216;2023-07-29T10:01:52;24.40;75.10
610;DHT22;292;48.800;9.216;2023-07-29T10:04:20;24.50;74.20
610;DHT22;292;48.800;9.216;2023-07-29T10:06:48;24.50;73.90
610;DHT22;292;48.800;9.216;2023-07-29T10:09:16;24.60;73.50
610;DHT22;292;48.800;9.216;2023-07-29T10:11:51;24.60;73.20
610;DHT22;292;48.800;9.216;2023-07-29T10:14:20;24.70;72.60
610;DHT22;292;48.800;9.216;2023-07-29T10:16:51;24.80;72.10
610;DHT22;292;48.800;9.216;2023-07-29T10:19:18;24.90;71.50
610;DHT22;292;48.800;9.216;2023-07-29T10:21:48;25.00;71.10
610;DHT22;292;48.800;9.216;2023-07-29T10:24:20;25.10;70.00
610;DHT22;292;48.800;9.216;2023-07-29T10:26:57;25.20;69.60
610;DHT22;292;48.800;9.216;2023-07-29T10:29:30;25.30;69.50
610;DHT22;292;48.800;9.216;2023-07-29T10:32:05;25.30;69.60
610;DHT22;292;48.800;9.216;2023-07-29T10:34:33;25.30;69.60
610;DHT22;292;48.800;9.216;2023-07-29T10:37:01;25.20;70.00
610;DHT22;292;48.800;9.216;2023-07-29T10:39:37;25.10;70.30
610;DHT22;292;48.800;9.216;2023-07-29T10:42:12;24.90;70.90
610;DHT22;292;48.800;9.216;2023-07-29T10:44:47;24.80;71.60
610;DHT22;292;48.800;9.216;2023-07-29T10:47:26;24.70;71.90
610;DHT22;292;48.800;9.216;2023-07-29T10:50:01;24.60;72.10
610;DHT22;292;48.800;9.216;2023-07-29T10:52:39;24.50;72.10
610;DHT22;292;48.800;9.216;2023-07-29T10:55:29;24.40;71.80
610;DHT22;292;48.800;9.216;2023-07-29T10:58:08;24.40;71.30
610;DHT22;292;48.800;9.216;2023-07-29T11:00:39;24.30;71.20
610;DHT22;292;48.800;9.216;2023-07-29T11:03:08;24.30;71.20
610;DHT22;292;48.800;9.216;2023-07-29T11:05:53;24.30;71.10
610;DHT22;292;48.800;9.216;2023-07-29T11:08:26;24.40;71.20
610;DHT22;292;48.800;9.216;2023-07-29T11:11:03;24.50;71.10
610;DHT22;292;48.800;9.216;2023-07-29T11:13:33;24.60;70.00
610;DHT22;292;48.800;9.216;2023-07-29T11:16:00;24.60;69.50
610;DHT22;292;48.800;9.216;2023-07-29T11:18:31;24.70;68.90
610;DHT22;292;48.800;9.216;2023-07-29T11:20:59;24.80;68.70
610;DHT22;292;48.800;9.216;2023-07-29T11:23:31;24.80;68.50
610;DHT22;292;48.800;9.216;2023-07-29T11:26:01;24.90;67.90
610;DHT22;292;48.800;9.216;2023-07-29T11:28:29;25.00;67.90
610;DHT22;292;48.800;9.216;2023-07-29T11:30:58;25.00;67.60
610;DHT22;292;48.800;9.216;2023-07-29T11:33:26;25.10;67.60
610;DHT22;292;48.800;9.216;2023-07-29T11:36:04;25.20;67.20
610;DHT22;292;48.800;9.216;2023-07-29T11:38:35;25.20;65.90
610;DHT22;292;48.800;9.216;2023-07-29T11:41:07;25.30;65.30
610;DHT22;292;48.800;9.216;2023-07-29T11:43:35;25.30;65.10
610;DHT22;292;48.800;9.216;2023-07-29T11:46:04;25.30;65.40
610;DHT22;292;48.800;9.216;2023-07-29T11:48:32;25.30;65.40
610;DHT22;292;48.800;9.216;2023-07-29T11:51:00;25.30;64.70
610;DHT22;292;48.800;9.216;2023-07-29T11:53:39;25.30;64.40
610;DHT22;292;48.800;9.216;2023-07-29T11:56:11;25.30;64.40
610;DHT22;292;48.800;9.216;2023-07-29T11:58:39;25.40;64.40
610;DHT22;292;48.800;9.216;2023-07-29T12:01:10;25.40;64.10
610;DHT22;292;48.800;9.216;2023-07-29T12:03:37;25.40;63.80
610;DHT22;292;48.800;9.216;2023-07-29T12:06:04;25.50;64.00
610;DHT22;292;48.800;9.216;2023-07-29T12:08:31;25.60;64.00
610;DHT22;292;48.800;9.216;2023-07-29T12:10:58;25.70;63.70
610;DHT22;292;48.800;9.216;2023-07-29T12:13:25;25.80;63.40
610;DHT22;292;48.800;9.216;2023-07-29T12:16:01;25.90;62.80
610;DHT22;292;48.800;9.216;2023-07-29T12:18:31;26.00;62.40
610;DHT22;292;48.800;9.216;2023-07-29T12:20:59;26.00;62.30
610;DHT22;292;48.800;9.216;2023-07-29T12:23:26;26.10;62.30
610;DHT22;292;48.800;9.216;2023-07-29T12:25:57;26.20;62.10
610;DHT22;292;48.800;9.216;2023-07-29T12:28:25;26.20;62.10
610;DHT22;292;48.800;9.216;2023-07-29T12:30:55;26.30;62.10
610;DHT22;292;48.800;9.216;2023-07-29T12:33:34;26.30;62.30
610;DHT22;292;48.800;9.216;2023-07-29T12:36:02;26.50;62.10
610;DHT22;292;48.800;9.216;2023-07-29T12:38:29;26.50;61.50
610;DHT22;292;48.800;9.216;2023-07-29T12:40:57;26.70;59.20
610;DHT22;292;48.800;9.216;2023-07-29T12:43:25;26.80;58.90
610;DHT22;292;48.800;9.216;2023-07-29T12:45:52;26.90;58.00
610;DHT22;292;48.800;9.216;2023-07-29T12:48:21;27.00;57.70
610;DHT22;292;48.800;9.216;2023-07-29T12:50:50;27.10;56.60
610;DHT22;292;48.800;9.216;2023-07-29T12:53:18;27.20;51.80
610;DHT22;292;48.800;9.216;2023-07-29T12:55:44;27.30;50.80
610;DHT22;292;48.800;9.216;2023-07-29T12:58:12;27.40;50.20
610;DHT22;292;48.800;9.216;2023-07-29T13:00:39;27.50;50.10
610;DHT22;292;48.800;9.216;2023-07-29T13:03:06;27.50;49.70
610;DHT22;292;48.800;9.216;2023-07-29T13:05:33;27.60;50.10
610;DHT22;292;48.800;9.216;2023-07-29T13:08:01;27.70;49.40
610;DHT22;292;48.800;9.216;2023-07-29T13:10:28;27.70;48.80
610;DHT22;292;48.800;9.216;2023-07-29T13:12:55;27.80;48.90
610;DHT22;292;48.800;9.216;2023-07-29T13:15:22;27.80;49.00
610;DHT22;292;48.800;9.216;2023-07-29T13:17:49;27.80;49.00
610;DHT22;292;48.800;9.216;2023-07-29T13:20:16;27.80;48.90
610;DHT22;292;48.800;9.216;2023-07-29T13:22:43;27.80;48.50
610;DHT22;292;48.800;9.216;2023-07-29T13:25:11;27.70;48.50
610;DHT22;292;48.800;9.216;2023-07-29T13:27:38;27.70;48.60
610;DHT22;292;48.800;9.216;2023-07-29T13:30:06;27.60;49.00
610;DHT22;292;48.800;9.216;2023-07-29T13:32:34;27.60;48.90
610;DHT22;292;48.800;9.216;2023-07-29T13:35:02;27.60;49.20
610;DHT22;292;48.800;9.216;2023-07-29T13:37:30;27.60;49.60
610;DHT22;292;48.800;9.216;2023-07-29T13:39:57;27.70;50.00
610;DHT22;292;48.800;9.216;2023-07-29T13:42:25;27.70;49.20
610;DHT22;292;48.800;9.216;2023-07-29T13:44:54;27.70;48.90
610;DHT22;292;48.800;9.216;2023-07-29T13:47:21;27.60;49.00
610;DHT22;292;48.800;9.216;2023-07-29T13:49:48;27.60;49.00
610;DHT22;292;48.800;9.216;2023-07-29T13:52:15;27.50;49.20
610;DHT22;292;48.800;9.216;2023-07-29T13:54:42;27.50;49.70
610;DHT22;292;48.800;9.216;2023-07-29T13:57:10;27.50;50.20
610;DHT22;292;48.800;9.216;2023-07-29T13:59:38;27.50;50.20
610;DHT22;292;48.800;9.216;2023-07-29T14:02:05;27.50;50.10
610;DHT22;292;48.800;9.216;2023-07-29T14:04:33;27.50;50.00
610;DHT22;292;48.800;9.216;2023-07-29T14:07:00;27.50;49.40
610;DHT22;292;48.800;9.216;2023-07-29T14:09:27;27.50;48.90
610;DHT22;292;48.800;9.216;2023-07-29T14:11:55;27.40;49.20
610;DHT22;292;48.800;9.216;2023-07-29T14:14:22;27.40;49.70
610;DHT22;292;48.800;9.216;2023-07-29T14:16:50;27.40;49.40
610;DHT22;292;48.800;9.216;2023-07-29T14:19:18;27.40;49.60
610;DHT22;292;48.800;9.216;2023-07-29T14:21:45;27.50;50.10
610;DHT22;292;48.800;9.216;2023-07-29T14:24:12;27.50;50.40
610;DHT22;292;48.800;9.216;2023-07-29T14:26:40;27.60;50.20
610;DHT22;292;48.800;9.216;2023-07-29T14:29:07;27.70;49.80
610;DHT22;292;48.800;9.216;2023-07-29T14:31:35;27.80;50.10
610;DHT22;292;48.800;9.216;2023-07-29T14:34:04;27.90;49.80
610;DHT22;292;48.800;9.216;2023-07-29T14:36:31;27.90;49.30
610;DHT22;292;48.800;9.216;2023-07-29T14:38:58;27.90;49.20
610;DHT22;292;48.800;9.216;2023-07-29T14:41:25;27.90;49.30
610;DHT22;292;48.800;9.216;2023-07-29T14:43:52;27.90;49.70
610;DHT22;292;48.800;9.216;2023-07-29T14:46:19;27.90;50.00
610;DHT22;292;48.800;9.216;2023-07-29T14:48:46;27.90;50.00
610;DHT22;292;48.800;9.216;2023-07-29T14:51:15;27.80;50.10
610;DHT22;292;48.800;9.216;2023-07-29T14:53:42;27.70;50.20
610;DHT22;292;48.800;9.216;2023-07-29T14:56:09;27.70;50.50
610;DHT22;292;48.800;9.216;2023-07-29T14:58:36;27.70;50.60
610;DHT22;292;48.800;9.216;2023-07-29T15:01:03;27.60;51.00
610;DHT22;292;48.800;9.216;2023-07-29T15:03:30;27.60;51.00
610;DHT22;292;48.800;9.216;2023-07-29T15:05:57;27.50;51.20
610;DHT22;292;48.800;9.216;2023-07-29T15:08:27;27.50;51.40
610;DHT22;292;48.800;9.216;2023-07-29T15:10:54;27.50;52.00
610;DHT22;292;48.800;9.216;2023-07-29T15:13:22;27.40;52.20
610;DHT22;292;48.800;9.216;2023-07-29T15:15:48;27.40;52.50
610;DHT22;292;48.800;9.216;2023-07-29T15:18:16;27.40;52.40
610;DHT22;292;48.800;9.216;2023-07-29T15:20:43;27.50;52.10
610;DHT22;292;48.800;9.216;2023-07-29T15:23:10;27.50;52.00
610;DHT22;292;48.800;9.216;2023-07-29T15:25:39;27.50;51.70
610;DHT22;292;48.800;9.216;2023-07-29T15:28:06;27.60;51.80
610;DHT22;292;48.800;9.216;2023-07-29T15:30:35;27.60;52.00
610;DHT22;292;48.800;9.216;2023-07-29T15:33:02;27.60;52.20
610;DHT22;292;48.800;9.216;2023-07-29T15:35:34;27.60;52.00
610;DHT22;292;48.800;9.216;2023-07-29T15:38:03;27.70;51.80
610;DHT22;292;48.800;9.216;2023-07-29T15:40:30;27.70;52.00
610;DHT22;292;48.800;9.216;2023-07-29T15:42:59;27.80;52.00
610;DHT22;292;48.800;9.216;2023-07-29T15:45:26;27.80;51.70
610;DHT22;292;48.800;9.216;2023-07-29T15:47:53;27.90;51.70
610;DHT22;292;48.800;9.216;2023-07-29T15:50:20;28.10;51.20
610;DHT22;292;48.800;9.216;2023-07-29T15:52:48;28.10;51.00
610;DHT22;292;48.800;9.216;2023-07-29T15:55:16;28.20;51.00
610;DHT22;292;48.800;9.216;2023-07-29T15:57:43;28.30;50.60
610;DHT22;292;48.800;9.216;2023-07-29T16:00:13;28.40;50.60
610;DHT22;292;48.800;9.216;2023-07-29T16:02:40;28.50;50.20
610;DHT22;292;48.800;9.216;2023-07-29T16:05:08;28.60;50.10
610;DHT22;292;48.800;9.216;2023-07-29T16:07:34;28.60;50.00
610;DHT22;292;48.800;9.216;2023-07-29T16:10:02;28.50;50.20
610;DHT22;292;48.800;9.216;2023-07-29T16:12:31;28.50;50.50
610;DHT22;292;48.800;9.216;2023-07-29T16:15:01;28.40;50.00
610;DHT22;292;48.800;9.216;2023-07-29T16:17:30;28.30;50.20
610;DHT22;292;48.800;9.216;2023-07-29T16:19:58;28.30;50.50
610;DHT22;292;48.800;9.216;2023-07-29T16:22:26;28.30;50.80
610;DHT22;292;48.800;9.216;2023-07-29T16:24:53;28.40;50.50
610;DHT22;292;48.800;9.216;2023-07-29T16:27:20;28.40;50.40
610;DHT22;292;48.800;9.216;2023-07-29T16:29:48;28.40;50.10
610;DHT22;292;48.800;9.216;2023-07-29T16:32:16;28.40;50.00
610;DHT22;292;48.800;9.216;2023-07-29T16:34:45;28.50;50.10
610;DHT22;292;48.800;9.216;2023-07-29T16:37:13;28.50;49.80
610;DHT22;292;48.800;9.216;2023-07-29T16:39:41;28.50;48.90
610;DHT22;292;48.800;9.216;2023-07-29T16:42:09;28.60;49.00
610;DHT22;292;48.800;9.216;2023-07-29T16:44:36;28.60;48.90